createdAt,value
2022-08-22T00:02:13.673Z,3.75
2022-08-22T00:03:02.258Z,3.47
2022-08-22T00:04:48.737Z,4.43
2022-08-22T00:10:02.186Z,4.20
2022-08-22T00:12:36.845Z,4.10
2022-08-22T00:15:16.768Z,6.25
2022-08-22T00:18:08.186Z,4.07
2022-08-22T00:20:42.364Z,4.43
2022-08-22T00:23:17.363Z,4.28
2022-08-22T00:28:21.073Z,4.32
2022-08-22T00:30:56.841Z,4.35
2022-08-22T00:33:32.865Z,3.65
2022-08-22T00:36:25.184Z,4.50
2022-08-22T00:39:03.864Z,4.90
2022-08-22T00:41:50.571Z,4.18
2022-08-22T00:44:40.259Z,4.25
2022-08-22T00:47:27.474Z,4.13
2022-08-22T00:50:13.855Z,4.82
2022-08-22T00:53:08.796Z,4.65
2022-08-22T00:55:51.245Z,5.37
2022-08-22T00:58:54.567Z,4.60
2022-08-22T01:01:29.632Z,4.13
2022-08-22T01:04:22.222Z,3.65
2022-08-22T01:07:01.809Z,4.20
2022-08-22T01:09:44.330Z,4.43
2022-08-22T01:12:40.525Z,4.45
2022-08-22T01:15:11.158Z,4.43
2022-08-22T01:17:55.710Z,4.05
2022-08-22T01:20:52.286Z,4.87
2022-08-22T01:23:56.241Z,4.43
2022-08-22T01:26:57.041Z,4.50
2022-08-22T01:29:58.224Z,4.78
2022-08-22T01:32:59.171Z,4.85
2022-08-22T01:35:42.087Z,4.40
2022-08-22T01:38:49.010Z,5.00
2022-08-22T01:41:52.990Z,4.68
2022-08-22T01:44:38.829Z,4.68
2022-08-22T01:47:12.796Z,5.20
2022-08-22T01:49:45.087Z,4.95
2022-08-22T01:52:19.627Z,4.45
2022-08-22T01:54:54.654Z,5.40
2022-08-22T01:57:23.997Z,5.63
2022-08-22T01:59:55.196Z,5.60
2022-08-22T02:02:44.108Z,5.35
2022-08-22T02:05:21.637Z,4.88
2022-08-22T02:07:59.242Z,5.15
2022-08-22T02:10:44.021Z,5.88
2022-08-22T02:13:26.145Z,5.20
2022-08-22T02:16:04.629Z,5.18
2022-08-22T02:18:47.013Z,5.22
2022-08-22T02:21:21.832Z,5.50
2022-08-22T02:23:56.636Z,6.57
2022-08-22T02:26:29.869Z,5.40
2022-08-22T02:29:01.657Z,5.88
2022-08-22T02:31:39.894Z,5.28
2022-08-22T02:34:39.640Z,5.25
2022-08-22T02:37:15.597Z,5.80
2022-08-22T02:39:50.420Z,5.93
2022-08-22T02:42:24.792Z,5.68
2022-08-22T02:44:59.813Z,5.60
2022-08-22T02:50:13.031Z,5.90
2022-08-22T02:52:55.517Z,5.65
2022-08-22T02:55:36.061Z,6.20
2022-08-22T02:58:08.052Z,5.30
2022-08-22T03:00:47.316Z,6.30
2022-08-22T03:03:24.863Z,5.90
2022-08-22T03:06:01.842Z,5.70
2022-08-22T03:08:32.212Z,5.40
2022-08-22T03:11:19.343Z,5.60
2022-08-22T03:13:54.859Z,6.30
2022-08-22T03:16:32.167Z,5.80
2022-08-22T03:19:08.380Z,5.93
2022-08-22T03:21:48.284Z,5.70
2022-08-22T03:24:24.734Z,5.88
2022-08-22T03:27:02.732Z,5.25
2022-08-22T03:29:34.071Z,6.15
2022-08-22T03:32:10.373Z,5.65
2022-08-22T03:34:38.695Z,5.45
2022-08-22T03:37:16.517Z,5.63
2022-08-22T03:40:00.868Z,5.60
2022-08-22T03:43:05.714Z,5.18
2022-08-22T03:45:55.556Z,6.53
2022-08-22T03:48:43.860Z,6.78
2022-08-22T03:51:23.354Z,5.57
2022-08-22T03:54:16.162Z,5.90
2022-08-22T03:57:14.130Z,6.10
2022-08-22T04:00:03.053Z,5.72
2022-08-22T04:03:13.266Z,6.40
2022-08-22T04:06:00.673Z,6.10
2022-08-22T04:09:03.513Z,6.10
2022-08-22T04:11:51.886Z,5.22
2022-08-22T04:14:43.967Z,6.13
2022-08-22T04:17:44.157Z,5.72
2022-08-22T04:20:27.508Z,6.03
2022-08-22T04:23:19.369Z,6.35
2022-08-22T04:25:52.129Z,6.57
2022-08-22T04:28:24.239Z,6.15
2022-08-22T04:30:57.287Z,7.97
2022-08-22T04:33:32.120Z,9.55
2022-08-22T04:36:09.440Z,8.05
2022-08-22T04:38:43.218Z,8.30
2022-08-22T04:41:14.698Z,7.20
2022-08-22T04:43:49.950Z,7.25
2022-08-22T04:46:26.224Z,7.95
2022-08-22T04:49:07.144Z,7.70
2022-08-22T04:51:39.567Z,7.20
2022-08-22T04:54:33.493Z,8.20
2022-08-22T04:57:15.146Z,8.23
2022-08-22T04:59:43.566Z,8.00
2022-08-22T05:02:20.817Z,7.60
2022-08-22T05:04:54.275Z,7.90
2022-08-22T05:07:25.381Z,7.38
2022-08-22T05:09:57.334Z,7.20
2022-08-22T05:12:33.527Z,7.40
2022-08-22T05:15:07.495Z,6.70
2022-08-22T05:17:39.769Z,6.78
2022-08-22T05:20:13.064Z,6.85
2022-08-22T05:22:45.358Z,7.10
2022-08-22T05:25:18.358Z,6.57
2022-08-22T05:27:50.140Z,6.10
2022-08-22T05:30:26.323Z,6.57
2022-08-22T05:32:58.978Z,6.38
2022-08-22T05:35:35.016Z,6.40
2022-08-22T05:38:05.622Z,6.93
2022-08-22T05:40:35.618Z,6.40
2022-08-22T05:43:07.382Z,6.43
2022-08-22T05:45:38.016Z,6.65
2022-08-22T05:48:09.837Z,7.13
2022-08-22T05:50:43.136Z,6.65
2022-08-22T05:53:14.630Z,6.43
2022-08-22T05:55:53.343Z,6.15
2022-08-22T05:58:43.512Z,6.68
2022-08-22T06:01:22.266Z,6.50
2022-08-22T06:04:00.618Z,6.10
2022-08-22T06:06:34.199Z,6.03
2022-08-22T06:09:13.133Z,6.05
2022-08-22T06:11:51.629Z,5.40
2022-08-22T06:14:39.720Z,6.28
2022-08-22T06:17:11.775Z,6.13
2022-08-22T06:19:43.000Z,6.63
2022-08-22T06:22:18.727Z,6.22
2022-08-22T06:24:48.555Z,6.30
2022-08-22T06:27:20.605Z,5.80
2022-08-22T06:29:51.909Z,6.35
2022-08-22T06:32:58.170Z,6.65
2022-08-22T06:35:17.693Z,6.72
2022-08-22T06:37:49.149Z,6.13
2022-08-22T06:40:18.483Z,5.70
2022-08-22T06:42:50.359Z,5.78
2022-08-22T06:45:22.995Z,6.00
2022-08-22T06:48:00.217Z,5.53
2022-08-22T06:50:31.755Z,5.60
2022-08-22T06:53:06.713Z,5.88
2022-08-22T06:55:36.318Z,6.45
2022-08-22T06:58:06.900Z,5.75
2022-08-22T07:00:36.359Z,6.03
2022-08-22T07:03:10.905Z,5.90
2022-08-22T07:05:42.345Z,6.00
2022-08-22T07:08:14.242Z,5.88
2022-08-22T07:10:43.405Z,5.82
2022-08-22T07:13:15.841Z,6.10
2022-08-22T07:15:44.117Z,6.68
2022-08-22T07:18:19.755Z,6.20
2022-08-22T07:20:50.610Z,6.20
2022-08-22T07:23:33.300Z,5.75
2022-08-22T07:26:16.035Z,5.38
2022-08-22T07:28:51.186Z,5.50
2022-08-22T07:31:34.029Z,5.65
2022-08-22T07:34:17.682Z,6.60
2022-08-22T07:36:50.265Z,5.07
2022-08-22T07:39:28.604Z,5.63
2022-08-22T07:42:08.013Z,5.05
2022-08-22T07:44:51.618Z,5.10
2022-08-22T07:47:26.414Z,4.82
2022-08-22T07:49:59.681Z,5.60
2022-08-22T07:52:31.554Z,5.75
2022-08-22T07:55:08.896Z,5.82
2022-08-22T07:57:41.451Z,5.50
2022-08-22T08:00:15.784Z,5.65
2022-08-22T08:02:47.690Z,5.93
2022-08-22T08:05:16.224Z,6.55
2022-08-22T08:07:45.886Z,6.07
2022-08-22T08:10:18.623Z,6.70
2022-08-22T08:13:01.780Z,5.80
2022-08-22T08:15:33.546Z,6.60
2022-08-22T08:18:05.451Z,5.78
2022-08-22T08:20:36.228Z,6.78
2022-08-22T08:23:05.318Z,5.65
2022-08-22T08:25:53.869Z,5.60
2022-08-22T08:28:37.991Z,5.78
2022-08-22T08:31:15.400Z,6.07
2022-08-22T08:33:48.870Z,7.05
2022-08-22T08:36:27.621Z,6.18
2022-08-22T08:39:01.163Z,5.30
2022-08-22T08:42:07.306Z,6.43
2022-08-22T08:44:56.398Z,4.68
2022-08-22T08:47:34.147Z,4.07
2022-08-22T08:50:24.495Z,4.95
2022-08-22T08:53:25.700Z,5.10
2022-08-22T08:55:58.837Z,4.07
2022-08-22T08:58:44.157Z,4.40
2022-08-22T09:01:44.316Z,4.57
2022-08-22T09:04:31.550Z,5.35
2022-08-22T09:07:30.532Z,3.90
2022-08-22T09:10:18.969Z,4.60
2022-08-22T09:13:12.723Z,5.18
2022-08-22T09:16:05.303Z,3.63
2022-08-22T09:18:49.923Z,4.28
2022-08-22T09:21:42.983Z,3.63
2022-08-22T09:24:46.840Z,3.20
2022-08-22T09:27:20.199Z,4.00
2022-08-22T09:29:54.911Z,3.42
2022-08-22T09:32:40.138Z,3.30
2022-08-22T09:35:25.931Z,3.80
2022-08-22T09:38:20.839Z,3.53
2022-08-22T09:40:54.572Z,3.38
2022-08-22T09:43:33.520Z,3.00
2022-08-22T09:46:14.293Z,3.20
2022-08-22T09:48:56.402Z,2.60
2022-08-22T09:51:34.930Z,2.70
2022-08-22T09:54:14.717Z,2.53
2022-08-22T09:56:53.609Z,2.70
2022-08-22T09:59:29.583Z,2.22
2022-08-22T10:02:15.371Z,2.80
2022-08-22T10:04:49.406Z,3.17
2022-08-22T10:07:33.479Z,2.78
2022-08-22T10:10:12.554Z,2.67
2022-08-22T10:12:53.414Z,3.00
2022-08-22T10:15:31.060Z,3.30
2022-08-22T10:18:10.484Z,2.75
2022-08-22T10:20:56.645Z,3.05
2022-08-22T10:23:30.304Z,3.97
2022-08-22T10:26:13.236Z,2.88
2022-08-22T10:28:56.013Z,3.10
2022-08-22T10:31:31.187Z,2.80
2022-08-22T10:34:10.593Z,2.88
2022-08-22T10:36:50.115Z,2.70
2022-08-22T10:39:23.927Z,2.75
2022-08-22T10:42:10.447Z,2.93
2022-08-22T10:44:45.823Z,2.42
2022-08-22T10:47:22.217Z,3.10
2022-08-22T10:49:54.363Z,2.70
2022-08-22T10:52:28.297Z,3.08
2022-08-22T10:55:01.466Z,3.17
2022-08-22T10:57:47.376Z,3.10
2022-08-22T11:00:31.625Z,2.97
2022-08-22T11:03:10.731Z,2.80
2022-08-22T11:05:43.238Z,2.90
2022-08-22T11:08:52.126Z,2.80
2022-08-22T11:11:40.406Z,2.70
2022-08-22T11:14:41.764Z,2.50
2022-08-22T11:17:31.754Z,2.60
2022-08-22T11:20:20.561Z,3.25
2022-08-22T11:23:12.354Z,2.92
2022-08-22T11:25:53.919Z,2.83
2022-08-22T11:28:39.077Z,2.80
2022-08-22T11:31:19.734Z,2.80
2022-08-22T11:33:53.814Z,2.70
2022-08-22T11:36:31.457Z,2.17
2022-08-22T11:39:22.750Z,2.88
2022-08-22T11:41:59.358Z,2.60
2022-08-22T11:44:32.318Z,2.50
2022-08-22T11:47:08.640Z,2.53
2022-08-22T11:49:49.538Z,3.25
2022-08-22T11:52:28.934Z,2.80
2022-08-22T11:55:16.642Z,2.42
2022-08-22T11:57:50.659Z,2.47
2022-08-22T12:00:34.260Z,2.65
2022-08-22T12:03:37.013Z,2.78
2022-08-22T12:06:14.876Z,3.13
2022-08-22T12:09:12.826Z,2.60
2022-08-22T12:11:49.608Z,2.53
2022-08-22T12:14:34.509Z,2.75
2022-08-22T12:17:22.844Z,2.40
2022-08-22T12:20:17.476Z,2.75
2022-08-22T12:23:02.819Z,2.75
2022-08-22T12:26:04.969Z,3.63
2022-08-22T12:28:47.943Z,3.08
2022-08-22T12:31:32.372Z,2.97
2022-08-22T12:37:03.990Z,2.75
2022-08-22T12:40:08.455Z,2.97
2022-08-22T12:42:52.840Z,3.03
2022-08-22T12:45:36.156Z,2.70
2022-08-22T12:48:22.365Z,2.83
2022-08-22T12:50:55.990Z,2.50
2022-08-22T12:53:57.448Z,3.03
2022-08-22T12:56:39.966Z,2.90
2022-08-22T12:59:24.367Z,2.75
2022-08-22T13:01:55.620Z,2.67
2022-08-22T13:04:33.135Z,2.72
2022-08-22T13:07:09.719Z,3.05
2022-08-22T13:09:40.922Z,2.97
2022-08-22T13:12:22.054Z,2.97
2022-08-22T13:14:55.063Z,2.80
2022-08-22T13:17:25.331Z,2.77
2022-08-22T13:20:08.079Z,2.80
2022-08-22T13:22:39.329Z,3.03
2022-08-22T13:25:15.341Z,2.97
2022-08-22T13:27:56.890Z,3.05
2022-08-22T13:30:31.713Z,2.83
2022-08-22T13:33:05.486Z,3.15
2022-08-22T13:35:45.616Z,2.83
2022-08-22T13:38:26.145Z,2.67
2022-08-22T13:43:28.283Z,2.70
2022-08-22T13:45:59.256Z,2.60
2022-08-22T13:48:32.444Z,2.83
2022-08-22T13:51:12.949Z,3.33
2022-08-22T13:53:49.801Z,3.08
2022-08-22T13:56:36.151Z,3.05
2022-08-22T13:59:07.947Z,2.80
2022-08-22T14:01:48.121Z,3.10
2022-08-22T14:04:34.596Z,3.25
2022-08-22T14:07:25.474Z,2.80
2022-08-22T14:09:58.437Z,3.55
2022-08-22T14:12:33.387Z,3.03
2022-08-22T14:15:23.047Z,3.58
2022-08-22T14:17:56.528Z,3.13
2022-08-22T14:20:33.839Z,3.08
2022-08-22T14:23:08.661Z,3.00
2022-08-22T14:25:42.747Z,3.53
2022-08-22T14:28:27.532Z,2.80
2022-08-22T14:31:02.928Z,2.67
2022-08-22T14:33:36.613Z,3.05
2022-08-22T14:36:17.246Z,2.83
2022-08-22T14:38:58.606Z,2.80
2022-08-22T14:41:52.606Z,3.45
2022-08-22T14:44:26.349Z,3.00
2022-08-22T14:46:57.426Z,2.90
2022-08-22T14:49:29.823Z,3.35
2022-08-22T14:52:03.189Z,3.00
2022-08-22T14:54:33.629Z,2.95
2022-08-22T14:57:04.706Z,3.15
2022-08-22T14:59:45.173Z,3.25
2022-08-22T15:02:18.434Z,3.25
2022-08-22T15:04:48.877Z,2.95
2022-08-22T15:07:24.594Z,3.10
2022-08-22T15:09:56.091Z,3.30
2022-08-22T15:12:28.669Z,3.13
2022-08-22T15:14:59.327Z,3.10
2022-08-22T15:17:38.394Z,3.40
2022-08-22T15:20:12.968Z,3.00
2022-08-22T15:22:45.466Z,3.15
2022-08-22T15:25:19.069Z,3.33
2022-08-22T15:27:49.874Z,3.13
2022-08-22T15:30:21.225Z,3.13
2022-08-22T15:32:49.953Z,2.90
2022-08-22T15:35:29.999Z,3.00
2022-08-22T15:38:00.250Z,2.92
2022-08-22T15:40:35.517Z,3.40
2022-08-22T15:43:22.450Z,3.08
2022-08-22T15:45:53.816Z,3.55
2022-08-22T15:48:31.628Z,3.00
2022-08-22T15:51:03.334Z,3.40
2022-08-22T15:53:53.693Z,3.00
2022-08-22T15:56:28.444Z,3.10
2022-08-22T15:59:20.135Z,2.95
2022-08-22T16:01:52.985Z,2.90
2022-08-22T16:04:34.694Z,2.90
2022-08-22T16:07:05.396Z,3.28
2022-08-22T16:09:43.484Z,3.08
2022-08-22T16:12:31.027Z,2.88
2022-08-22T16:15:01.193Z,3.00
2022-08-22T16:17:47.169Z,3.40
2022-08-22T16:20:56.948Z,2.70
2022-08-22T16:23:24.660Z,3.20
2022-08-22T16:26:10.366Z,3.30
2022-08-22T16:28:58.360Z,3.38
2022-08-22T16:31:30.854Z,3.58
2022-08-22T16:34:20.164Z,3.03
2022-08-22T16:36:50.453Z,3.13
2022-08-22T16:39:38.353Z,2.97
2022-08-22T16:42:25.082Z,2.97
2022-08-22T16:44:57.316Z,3.15
2022-08-22T16:47:41.328Z,3.08
2022-08-22T16:50:25.832Z,2.88
2022-08-22T16:52:58.161Z,3.20
2022-08-22T16:56:19.536Z,3.25
2022-08-22T16:59:19.599Z,3.10
2022-08-22T17:02:21.005Z,3.15
2022-08-22T17:05:02.616Z,3.10
2022-08-22T17:07:44.350Z,3.42
2022-08-22T17:10:34.551Z,3.20
2022-08-22T17:13:27.546Z,3.30
2022-08-22T17:16:13.241Z,3.20
2022-08-22T17:18:52.403Z,2.90
2022-08-22T17:21:26.183Z,3.08
2022-08-22T17:24:01.472Z,2.95
2022-08-22T17:26:41.586Z,3.28
2022-08-22T17:29:20.520Z,3.40
2022-08-22T17:31:55.504Z,3.38
2022-08-22T17:34:38.792Z,3.65
2022-08-22T17:37:16.539Z,3.50
2022-08-22T17:39:57.945Z,3.35
2022-08-22T17:42:57.373Z,3.45
2022-08-22T17:45:41.524Z,3.50
2022-08-22T17:48:16.662Z,3.47
2022-08-22T17:50:50.581Z,3.00
2022-08-22T17:53:31.957Z,3.30
2022-08-22T17:56:07.526Z,3.28
2022-08-22T17:58:49.134Z,3.55
2022-08-22T18:01:45.188Z,3.20
2022-08-22T18:04:25.989Z,3.70
2022-08-22T18:07:05.181Z,3.55
2022-08-22T18:09:39.564Z,3.58
2022-08-22T18:12:16.691Z,3.70
2022-08-22T18:14:52.356Z,3.33
2022-08-22T18:17:35.888Z,3.25
2022-08-22T18:20:11.329Z,2.90
2022-08-22T18:22:47.196Z,3.20
2022-08-22T18:25:33.297Z,3.80
2022-08-22T18:28:06.396Z,3.70
2022-08-22T18:30:39.858Z,3.47
2022-08-22T18:33:12.726Z,3.08
2022-08-22T18:35:49.988Z,3.50
2022-08-22T18:38:29.351Z,3.55
2022-08-22T18:41:06.524Z,3.40
2022-08-22T18:43:37.944Z,3.58
2022-08-22T18:46:29.743Z,3.83
2022-08-22T18:49:15.137Z,4.00
2022-08-22T18:51:44.005Z,3.08
2022-08-22T18:54:39.528Z,3.10
2022-08-22T18:57:30.455Z,3.45
2022-08-22T19:00:08.907Z,3.30
2022-08-22T19:03:08.413Z,2.90
2022-08-22T19:06:13.596Z,3.15
2022-08-22T19:09:20.852Z,3.50
2022-08-22T19:11:58.819Z,3.08
2022-08-22T19:14:45.071Z,3.40
2022-08-22T19:17:44.222Z,3.20
2022-08-22T19:20:46.753Z,3.53
2022-08-22T19:23:51.131Z,3.60
2022-08-22T19:26:43.551Z,3.47
2022-08-22T19:29:48.527Z,3.30
2022-08-22T19:32:49.876Z,3.38
2022-08-22T19:35:23.326Z,3.30
2022-08-22T19:37:58.100Z,2.95
2022-08-22T19:40:58.430Z,3.20
2022-08-22T19:43:32.949Z,3.38
2022-08-22T19:46:08.157Z,3.33
2022-08-22T19:48:45.421Z,3.00
2022-08-22T19:51:25.828Z,3.38
2022-08-22T19:54:17.717Z,3.10
2022-08-22T19:57:02.827Z,3.42
2022-08-22T19:59:50.751Z,3.40
2022-08-22T20:02:31.998Z,3.55
2022-08-22T20:05:15.572Z,3.00
2022-08-22T20:07:58.329Z,3.33
2022-08-22T20:10:35.984Z,2.90
2022-08-22T20:13:08.538Z,3.28
2022-08-22T20:16:09.552Z,3.15
2022-08-22T20:19:21.210Z,3.00
2022-08-22T20:21:58.681Z,3.10
2022-08-22T20:24:36.544Z,3.40
2022-08-22T20:27:14.819Z,3.20
2022-08-22T20:29:52.820Z,3.38
2022-08-22T20:32:25.952Z,4.07
2022-08-22T20:35:13.363Z,3.70
2022-08-22T20:38:06.407Z,3.67
2022-08-22T20:44:15.930Z,3.78
2022-08-22T20:46:55.018Z,3.45
2022-08-22T20:49:33.156Z,3.70
2022-08-22T20:52:10.920Z,3.47
2022-08-22T20:54:41.796Z,3.35
2022-08-22T20:57:15.997Z,3.50
2022-08-22T20:59:52.846Z,3.70
2022-08-22T21:02:25.728Z,3.20
2022-08-22T21:05:00.350Z,3.45
2022-08-22T21:10:22.250Z,3.78
2022-08-22T21:13:08.498Z,3.90
2022-08-22T21:15:41.634Z,3.25
2022-08-22T21:18:10.818Z,3.58
2022-08-22T21:20:39.975Z,3.38
2022-08-22T21:23:11.058Z,3.10
2022-08-22T21:25:56.451Z,3.40
2022-08-22T21:28:34.533Z,3.60
2022-08-22T21:31:20.875Z,3.60
2022-08-22T21:33:50.747Z,3.35
2022-08-22T21:36:22.730Z,3.28
2022-08-22T21:38:53.777Z,3.28
2022-08-22T21:41:26.542Z,3.38
2022-08-22T21:43:54.363Z,3.42
2022-08-22T21:46:29.592Z,3.60
2022-08-22T21:49:02.408Z,3.38
2022-08-22T21:51:40.691Z,3.30
2022-08-22T21:54:39.829Z,3.60
2022-08-22T21:57:35.745Z,3.58
2022-08-22T22:00:08.916Z,3.28
2022-08-22T22:02:41.925Z,3.40
2022-08-22T22:05:14.086Z,3.53
2022-08-22T22:07:43.518Z,3.85
2022-08-22T22:10:16.154Z,3.80
2022-08-22T22:12:45.575Z,3.90
2022-08-22T22:15:17.136Z,4.57
2022-08-22T22:17:46.388Z,4.10
2022-08-22T22:20:16.170Z,3.90
2022-08-22T22:22:45.904Z,3.92
2022-08-22T22:25:39.883Z,3.90
2022-08-22T22:28:05.330Z,4.10
2022-08-22T22:30:33.096Z,3.80
2022-08-22T22:33:02.027Z,4.07
2022-08-22T22:35:29.673Z,4.55
2022-08-22T22:37:57.628Z,4.28
2022-08-22T22:40:26.725Z,4.22
2022-08-22T22:42:54.385Z,4.15
2022-08-22T22:45:22.103Z,4.00
2022-08-22T22:47:49.636Z,4.15
2022-08-22T22:50:18.694Z,4.53
2022-08-22T22:52:46.265Z,4.18
2022-08-22T22:55:24.394Z,4.45
2022-08-22T22:57:59.187Z,3.88
2022-08-22T23:00:30.505Z,3.45
2022-08-22T23:02:58.652Z,4.03
2022-08-22T23:05:28.272Z,4.25
2022-08-22T23:07:56.055Z,4.30
2022-08-22T23:10:23.648Z,4.35
2022-08-22T23:12:51.471Z,5.05
2022-08-22T23:15:19.128Z,5.20
2022-08-22T23:17:46.950Z,5.32
2022-08-22T23:20:14.522Z,4.95
2022-08-22T23:22:45.228Z,5.10
2022-08-22T23:25:12.874Z,5.20
2022-08-22T23:27:40.479Z,4.93
2022-08-22T23:30:10.386Z,5.00
2022-08-22T23:32:38.649Z,5.45
2022-08-22T23:35:07.198Z,5.60
2022-08-22T23:37:35.080Z,5.75
2022-08-22T23:40:07.227Z,6.60
2022-08-22T23:42:34.979Z,6.28
2022-08-22T23:45:02.633Z,5.50
2022-08-22T23:47:30.236Z,6.35
2022-08-22T23:49:57.801Z,5.78
2022-08-22T23:52:26.493Z,5.95
2022-08-22T23:54:55.846Z,4.93
2022-08-22T23:57:27.379Z,4.95
2022-08-22T23:59:57.945Z,5.22
